Time;durP1;ratioP1;P1;durP2;ratioP2;P2;SDS_P1;SDS_P2;PMS_P1;PMS_P2;Temp;Humidity;BMP_temperature;BMP_pressure;BME280_temperature;BME280_humidity;BME280_pressure;Samples;Min_cycle;Max_cycle;Signal;HPM_P1;HPM_P2
2022/03/23 00:01:34;;;;;;;34.60;21.75;;;8.10;99.90;;;;;;5039104;28;20435;-77
2022/03/23 00:04:01;;;;;;;31.80;21.98;;;8.10;99.90;;;;;;5040535;28;20395;-77
2022/03/23 00:06:27;;;;;;;31.77;21.80;;;8.10;99.90;;;;;;5041019;28;20048;-77
2022/03/23 00:08:53;;;;;;;28.92;20.33;;;8.00;99.90;;;;;;5043749;28;20060;-77
2022/03/23 00:11:19;;;;;;;34.35;21.25;;;8.00;99.90;;;;;;5026326;28;20045;-76
2022/03/23 00:13:45;;;;;;;31.52;21.20;;;7.90;99.90;;;;;;5041212;28;20044;-77
2022/03/23 00:16:11;;;;;;;29.75;20.23;;;7.90;99.90;;;;;;5056399;28;20056;-78
2022/03/23 00:18:36;;;;;;;31.65;20.95;;;7.90;99.90;;;;;;5042441;28;20032;-78
2022/03/23 00:21:02;;;;;;;30.70;20.88;;;7.90;99.90;;;;;;5044800;28;20032;-77
2022/03/23 00:23:27;;;;;;;30.45;20.27;;;7.80;99.90;;;;;;5043360;28;20052;-78
2022/03/23 00:25:53;;;;;;;29.67;18.95;;;7.80;99.90;;;;;;5042663;28;20048;-77
2022/03/23 00:28:20;;;;;;;31.25;21.15;;;7.80;99.90;;;;;;5039717;28;20038;-78
2022/03/23 00:30:48;;;;;;;30.67;20.38;;;7.70;99.90;;;;;;5042188;28;20390;-76
2022/03/23 00:33:14;;;;;;;32.83;20.88;;;7.70;99.90;;;;;;5040817;28;21776;-77
2022/03/23 00:35:41;;;;;;;35.05;21.65;;;7.70;99.90;;;;;;5041911;28;20033;-77
2022/03/23 00:38:06;;;;;;;31.63;20.50;;;7.70;99.90;;;;;;5043727;28;20057;-76
2022/03/23 00:40:33;;;;;;;30.67;19.95;;;7.60;99.90;;;;;;5041099;28;20067;-77
2022/03/23 00:42:59;;;;;;;30.65;20.50;;;7.60;99.90;;;;;;5040063;28;20443;-76
2022/03/23 00:45:25;;;;;;;30.05;19.77;;;7.60;99.90;;;;;;5041253;28;20045;-77
2022/03/23 00:47:50;;;;;;;30.65;19.58;;;7.50;99.90;;;;;;5040398;28;20049;-77
2022/03/23 00:50:17;;;;;;;30.02;20.50;;;7.50;99.90;;;;;;5042964;28;20041;-77
2022/03/23 00:52:46;;;;;;;32.90;20.83;;;7.50;99.90;;;;;;5041128;28;20048;-77
2022/03/23 00:55:11;;;;;;;28.77;19.42;;;7.50;99.90;;;;;;5041903;28;20061;-77
2022/03/23 00:57:38;;;;;;;32.10;20.50;;;7.40;99.90;;;;;;5041496;28;20041;-76
2022/03/23 01:00:06;;;;;;;31.80;21.08;;;7.40;99.90;;;;;;5038214;28;20120;-75
2022/03/23 01:02:35;;;;;;;33.72;20.30;;;7.40;99.90;;;;;;5034653;28;20091;-77
2022/03/23 01:05:02;;;;;;;32.53;21.80;;;7.30;99.90;;;;;;5037601;28;20094;-77
2022/03/23 01:07:27;;;;;;;31.33;20.88;;;7.30;99.90;;;;;;5041885;28;20056;-76
2022/03/23 01:09:53;;;;;;;35.15;21.13;;;7.20;99.90;;;;;;5039593;28;20072;-75
2022/03/23 01:12:18;;;;;;;31.55;20.55;;;7.20;99.90;;;;;;5040012;28;20681;-77
2022/03/23 01:14:44;;;;;;;29.95;20.13;;;7.10;99.90;;;;;;5042203;28;20128;-77
2022/03/23 01:17:10;;;;;;;34.97;22.65;;;7.20;99.90;;;;;;5047009;28;20044;-78
2022/03/23 01:19:36;;;;;;;36.47;22.90;;;7.10;99.90;;;;;;5042399;28;20484;-74
2022/03/23 01:22:04;;;;;;;33.00;21.05;;;7.10;99.90;;;;;;5039963;28;20794;-77
2022/03/23 01:24:30;;;;;;;32.92;21.13;;;7.10;99.90;;;;;;5038698;28;20483;-76
2022/03/23 01:26:56;;;;;;;30.25;20.23;;;7.10;99.90;;;;;;5039862;28;20140;-76
2022/03/23 01:29:21;;;;;;;31.65;20.60;;;7.00;99.90;;;;;;5042100;28;20466;-77
2022/03/23 01:31:47;;;;;;;32.40;20.80;;;7.00;99.90;;;;;;5040742;28;20131;-77
2022/03/23 01:34:12;;;;;;;32.90;21.38;;;7.00;99.90;;;;;;5039992;28;20076;-78
2022/03/23 01:36:38;;;;;;;33.25;20.92;;;7.00;99.90;;;;;;5041285;28;20069;-78
2022/03/23 01:39:04;;;;;;;29.40;20.60;;;7.00;99.90;;;;;;5042857;28;20053;-77
2022/03/23 01:41:33;;;;;;;34.25;22.40;;;7.00;99.90;;;;;;5044397;28;20043;-77
2022/03/23 01:43:59;;;;;;;29.58;20.50;;;6.90;99.90;;;;;;5044292;28;20114;-77
2022/03/23 01:46:26;;;;;;;34.53;21.42;;;6.90;99.90;;;;;;5043536;28;20041;-76
2022/03/23 01:48:51;;;;;;;32.42;21.77;;;6.90;99.90;;;;;;5037901;28;20044;-78
2022/03/23 01:51:17;;;;;;;34.50;22.30;;;6.80;99.90;;;;;;5045639;28;20344;-77
2022/03/23 01:53:43;;;;;;;34.92;22.33;;;6.80;99.90;;;;;;5041350;28;20072;-77
2022/03/23 01:56:13;;;;;;;32.25;21.65;;;6.80;99.90;;;;;;5057323;28;20037;-78
2022/03/23 01:58:39;;;;;;;33.85;22.25;;;6.80;99.90;;;;;;5038457;28;20046;-77
2022/03/23 02:01:04;;;;;;;37.65;22.55;;;6.70;99.90;;;;;;5041255;28;20152;-77
2022/03/23 02:03:30;;;;;;;34.40;22.65;;;6.70;99.90;;;;;;5041854;28;20235;-77
2022/03/23 02:05:55;;;;;;;37.42;22.48;;;6.70;99.90;;;;;;5040056;28;20075;-76
2022/03/23 02:08:21;;;;;;;33.10;21.92;;;6.70;99.90;;;;;;5039836;28;20134;-77
2022/03/23 02:10:47;;;;;;;33.88;21.88;;;6.60;99.90;;;;;;5041675;28;20033;-78
2022/03/23 02:13:12;;;;;;;32.67;22.38;;;6.60;99.90;;;;;;5044986;28;20068;-78
2022/03/23 02:15:38;;;;;;;35.63;22.40;;;6.50;99.90;;;;;;5044140;28;20041;-77
2022/03/23 02:18:06;;;;;;;32.92;20.80;;;6.50;99.90;;;;;;5043624;28;20060;-78
2022/03/23 02:20:32;;;;;;;33.05;21.17;;;6.50;99.90;;;;;;5043483;28;20095;-78
2022/03/23 02:22:57;;;;;;;33.22;22.30;;;6.50;99.90;;;;;;5042508;28;20048;-76
2022/03/23 02:25:28;;;;;;;37.65;22.73;;;6.40;99.90;;;;;;5046864;28;20450;-78
2022/03/23 02:27:55;;;;;;;31.88;21.52;;;6.40;99.90;;;;;;5042707;28;20052;-77
2022/03/23 02:30:22;;;;;;;34.35;21.35;;;6.40;99.90;;;;;;5035829;28;20049;-77
2022/03/23 02:32:48;;;;;;;35.20;22.95;;;6.40;99.90;;;;;;5045118;28;20045;-78
2022/03/23 02:35:15;;;;;;;34.10;21.95;;;6.40;99.90;;;;;;5043479;28;20041;-78
2022/03/23 02:37:42;;;;;;;35.78;22.67;;;6.30;99.90;;;;;;5043448;28;20483;-78
2022/03/23 02:40:09;;;;;;;35.42;21.40;;;6.30;99.90;;;;;;5044438;28;20502;-78
2022/03/23 02:42:39;;;;;;;33.03;21.13;;;6.20;99.90;;;;;;5043578;28;20160;-78
2022/03/23 02:45:06;;;;;;;33.80;21.80;;;6.20;99.90;;;;;;5047306;28;20037;-78
2022/03/23 02:47:32;;;;;;;32.60;21.20;;;6.20;99.90;;;;;;5030860;28;20124;-77
2022/03/23 02:49:57;;;;;;;32.55;21.25;;;6.20;99.90;;;;;;5046998;28;20406;-77
2022/03/23 02:52:23;;;;;;;35.10;23.10;;;6.10;99.90;;;;;;5046024;28;20057;-77
2022/03/23 03:03:08;;;;;;;33.15;20.73;;;6.10;99.90;;;;;;5060714;28;20115;-78
2022/03/23 03:05:33;;;;;;;36.42;21.65;;;6.00;99.90;;;;;;5051203;28;20939;-78
2022/03/23 03:10:43;;;;;;;33.08;21.33;;;6.00;99.90;;;;;;5047221;28;20053;-77
2022/03/23 03:13:09;;;;;;;32.92;21.27;;;6.00;99.90;;;;;;5048242;28;20387;-78
2022/03/23 03:15:34;;;;;;;32.78;21.75;;;6.00;99.90;;;;;;5043294;28;20040;-78
2022/03/23 03:18:00;;;;;;;31.05;21.30;;;6.00;99.90;;;;;;5046686;28;20034;-78
2022/03/23 03:20:27;;;;;;;32.03;21.00;;;5.90;99.90;;;;;;5048597;28;20432;-79
2022/03/23 03:22:53;;;;;;;36.25;22.33;;;6.00;99.90;;;;;;5050129;28;20033;-78
2022/03/23 03:25:21;;;;;;;34.70;22.17;;;5.90;99.90;;;;;;5046486;28;20130;-78
2022/03/23 03:27:47;;;;;;;37.25;22.15;;;5.90;99.90;;;;;;5048563;28;20045;-78
2022/03/23 03:30:18;;;;;;;35.67;23.00;;;5.90;99.90;;;;;;5048880;28;20049;-78
2022/03/23 03:32:45;;;;;;;33.97;21.88;;;5.90;99.90;;;;;;5040254;28;20483;-79
2022/03/23 03:35:13;;;;;;;35.13;22.85;;;5.90;99.90;;;;;;5048635;28;20455;-78
2022/03/23 03:37:39;;;;;;;34.90;22.00;;;5.80;99.90;;;;;;5041528;28;20056;-76
2022/03/23 03:40:05;;;;;;;36.90;22.02;;;5.80;99.90;;;;;;5046655;28;20059;-76
2022/03/23 03:42:31;;;;;;;34.35;21.90;;;5.80;99.90;;;;;;5061052;28;20049;-76
2022/03/23 03:44:57;;;;;;;34.38;22.15;;;5.80;99.90;;;;;;5040587;28;20059;-76
2022/03/23 03:47:23;;;;;;;33.72;21.55;;;5.80;99.90;;;;;;5043884;28;20048;-77
2022/03/23 03:49:50;;;;;;;31.88;21.00;;;5.70;99.90;;;;;;5041237;28;20144;-77
2022/03/23 03:52:16;;;;;;;35.42;22.88;;;5.70;99.90;;;;;;5044091;28;20045;-78
2022/03/23 03:54:42;;;;;;;32.47;21.80;;;5.70;99.90;;;;;;5042770;28;20214;-78
2022/03/23 03:57:07;;;;;;;36.22;22.52;;;5.70;99.90;;;;;;5043238;28;20056;-77
2022/03/23 03:59:34;;;;;;;35.60;21.92;;;5.60;99.90;;;;;;5043715;28;20040;-77
2022/03/23 04:02:00;;;;;;;34.08;21.65;;;5.60;99.90;;;;;;5045808;28;20068;-78
2022/03/23 04:04:26;;;;;;;35.17;22.98;;;5.60;99.90;;;;;;5045870;28;20459;-77
2022/03/23 04:06:51;;;;;;;40.05;24.58;;;5.60;99.90;;;;;;5045836;28;20071;-77
2022/03/23 04:09:17;;;;;;;34.78;22.55;;;5.60;99.90;;;;;;5038657;28;20356;-76
2022/03/23 04:11:43;;;;;;;34.92;22.15;;;5.60;99.90;;;;;;5043167;28;20055;-77
2022/03/23 04:14:08;;;;;;;35.00;22.73;;;5.60;99.90;;;;;;5041058;28;21951;-77
2022/03/23 04:16:34;;;;;;;36.53;23.45;;;5.50;99.90;;;;;;5042528;28;20045;-77
2022/03/23 04:19:00;;;;;;;35.35;23.02;;;5.50;99.90;;;;;;5045276;28;20530;-78
2022/03/23 04:21:25;;;;;;;31.83;21.27;;;5.50;99.90;;;;;;5042798;28;20144;-77
2022/03/23 04:23:51;;;;;;;36.72;24.48;;;5.50;99.90;;;;;;5040885;28;20049;-77
2022/03/23 04:26:17;;;;;;;33.55;21.48;;;5.40;99.90;;;;;;5040130;28;20049;-78
2022/03/23 04:28:42;;;;;;;35.10;21.55;;;5.40;99.90;;;;;;5035913;28;20094;-76
2022/03/23 04:31:08;;;;;;;35.80;22.20;;;5.40;99.90;;;;;;5045243;28;20141;-77
2022/03/23 04:33:33;;;;;;;35.28;22.70;;;5.30;99.90;;;;;;5042880;28;20391;-77
2022/03/23 04:35:59;;;;;;;33.28;22.35;;;5.30;99.90;;;;;;5042599;28;20044;-76
2022/03/23 04:38:26;;;;;;;36.78;21.67;;;5.30;99.90;;;;;;5041651;28;22164;-77
2022/03/23 04:40:53;;;;;;;39.47;23.13;;;5.30;99.90;;;;;;5041418;28;20101;-77
2022/03/23 04:43:19;;;;;;;33.55;22.05;;;5.30;99.90;;;;;;5044695;28;20083;-77
2022/03/23 04:45:44;;;;;;;36.03;22.45;;;5.20;99.90;;;;;;5024928;28;20033;-78
2022/03/23 04:48:10;;;;;;;37.35;22.55;;;5.20;99.90;;;;;;5038909;28;20110;-77
2022/03/23 04:50:35;;;;;;;37.90;22.77;;;5.20;99.90;;;;;;5025984;28;20052;-75
2022/03/23 04:53:01;;;;;;;38.10;20.98;;;5.10;99.90;;;;;;5058131;28;20622;-77
2022/03/23 04:55:27;;;;;;;38.78;22.67;;;5.20;99.90;;;;;;5042475;28;20144;-77
2022/03/23 04:57:52;;;;;;;32.83;21.30;;;5.10;99.90;;;;;;5043392;28;20045;-77
2022/03/23 05:00:20;;;;;;;34.65;21.83;;;5.10;99.90;;;;;;5041703;28;20496;-77
2022/03/23 05:02:48;;;;;;;34.58;21.35;;;5.10;99.90;;;;;;5041378;28;20048;-76
2022/03/23 05:05:15;;;;;;;35.83;22.13;;;5.00;99.90;;;;;;5040848;28;20068;-77
2022/03/23 05:07:42;;;;;;;33.50;20.92;;;5.00;99.90;;;;;;5022686;28;20049;-76
2022/03/23 05:10:09;;;;;;;36.92;21.73;;;5.00;99.90;;;;;;5040031;28;20156;-77
2022/03/23 05:12:42;;;;;;;33.70;21.45;;;5.00;99.90;;;;;;5038593;28;20367;-76
2022/03/23 05:15:09;;;;;;;40.53;23.60;;;5.00;99.90;;;;;;5055206;28;20045;-77
2022/03/23 05:17:36;;;;;;;36.90;22.75;;;4.90;99.90;;;;;;5042041;28;20140;-77
2022/03/23 05:20:04;;;;;;;39.40;22.92;;;5.00;99.90;;;;;;5039482;28;20456;-76
2022/03/23 05:22:30;;;;;;;38.38;23.45;;;4.90;99.90;;;;;;5041819;28;20072;-76
2022/03/23 05:24:56;;;;;;;40.13;23.13;;;4.90;99.90;;;;;;5022897;28;20171;-76
2022/03/23 05:27:22;;;;;;;37.20;22.80;;;4.90;99.90;;;;;;5039853;28;20095;-77
2022/03/23 05:29:47;;;;;;;36.47;21.80;;;4.90;99.90;;;;;;5037178;28;20052;-76
2022/03/23 05:32:16;;;;;;;39.15;22.80;;;4.80;99.90;;;;;;5038210;28;20075;-76
2022/03/23 05:34:45;;;;;;;35.92;22.90;;;4.80;99.90;;;;;;5037455;28;20041;-77
2022/03/23 05:37:11;;;;;;;39.00;22.17;;;4.90;99.90;;;;;;5041228;28;20033;-77
2022/03/23 05:39:46;;;;;;;35.47;22.30;;;4.80;99.90;;;;;;5040273;28;20044;-77
2022/03/23 05:42:32;;;;;;;36.78;23.25;;;4.80;99.90;;;;;;5022923;28;20037;-77
2022/03/23 05:45:01;;;;;;;39.80;23.80;;;4.80;99.90;;;;;;5048238;28;20064;-77
2022/03/23 05:47:26;;;;;;;37.42;22.65;;;4.80;99.90;;;;;;5037599;28;20483;-77
2022/03/23 05:49:52;;;;;;;38.20;23.73;;;4.80;99.90;;;;;;5046595;28;20114;-77
2022/03/23 05:52:17;;;;;;;36.15;21.70;;;4.80;99.90;;;;;;5044965;28;20033;-78
2022/03/23 05:54:43;;;;;;;38.60;23.23;;;4.80;99.90;;;;;;5044451;28;20190;-78
2022/03/23 05:57:08;;;;;;;34.03;21.42;;;4.80;99.90;;;;;;5056276;28;20689;-78
2022/03/23 05:59:34;;;;;;;40.78;23.00;;;4.80;99.90;;;;;;5051228;28;20052;-77
2022/03/23 06:02:01;;;;;;;37.78;22.67;;;4.80;99.90;;;;;;5042835;28;20037;-78
2022/03/23 06:04:26;;;;;;;37.20;23.10;;;4.80;99.90;;;;;;5043958;28;20056;-77
2022/03/23 06:06:52;;;;;;;36.97;23.30;;;4.80;99.90;;;;;;5042651;28;20455;-78
2022/03/23 06:09:19;;;;;;;36.78;22.73;;;4.90;99.90;;;;;;5037257;28;20053;-78
2022/03/23 06:11:45;;;;;;;38.05;23.65;;;4.90;99.90;;;;;;5043333;28;20033;-80
2022/03/23 06:14:10;;;;;;;40.83;24.88;;;4.90;99.90;;;;;;5046422;28;20131;-80
2022/03/23 06:16:36;;;;;;;40.75;26.25;;;5.00;99.90;;;;;;5044767;28;20087;-78
2022/03/23 06:19:02;;;;;;;40.03;24.75;;;5.00;99.90;;;;;;5045552;28;20128;-81
2022/03/23 06:21:28;;;;;;;39.13;24.73;;;5.00;99.90;;;;;;5044551;28;20041;-81
2022/03/23 06:23:54;;;;;;;38.25;23.40;;;5.10;99.90;;;;;;5054620;28;20385;-81
2022/03/23 06:26:19;;;;;;;43.22;25.85;;;5.10;99.90;;;;;;5047606;28;20076;-81
2022/03/23 06:28:45;;;;;;;40.88;25.65;;;5.20;99.90;;;;;;5053665;28;20128;-77
2022/03/23 06:31:11;;;;;;;38.20;24.38;;;5.20;99.90;;;;;;5050779;28;20530;-80
2022/03/23 06:33:36;;;;;;;43.55;25.08;;;5.30;99.90;;;;;;5053717;28;20419;-80
2022/03/23 06:36:03;;;;;;;43.97;27.05;;;5.30;99.90;;;;;;5050272;28;20116;-76
2022/03/23 06:38:29;;;;;;;40.65;26.70;;;5.30;99.90;;;;;;5049906;28;20183;-77
2022/03/23 06:40:55;;;;;;;40.08;25.50;;;5.30;99.90;;;;;;5045662;28;20063;-79
2022/03/23 06:43:20;;;;;;;42.78;25.20;;;5.40;99.90;;;;;;5028069;28;20183;-79
2022/03/23 06:45:46;;;;;;;38.10;24.38;;;5.40;99.90;;;;;;5046114;28;20053;-74
2022/03/23 06:48:12;;;;;;;43.35;26.65;;;5.50;99.90;;;;;;5045212;28;21211;-75
2022/03/23 06:50:37;;;;;;;44.05;26.08;;;5.50;99.90;;;;;;5046384;28;20048;-73
2022/03/23 06:53:03;;;;;;;47.20;27.08;;;5.60;99.90;;;;;;5046212;28;20513;-75
2022/03/23 06:55:29;;;;;;;44.05;25.92;;;5.60;99.90;;;;;;5040129;28;20052;-73
2022/03/23 06:57:55;;;;;;;44.63;26.88;;;5.60;99.90;;;;;;5051979;28;20098;-73
2022/03/23 07:00:21;;;;;;;47.92;28.88;;;5.70;99.90;;;;;;5050530;28;20419;-71
2022/03/23 07:02:48;;;;;;;51.78;30.35;;;5.80;99.90;;;;;;5051754;28;20044;-73
2022/03/23 07:05:16;;;;;;;48.47;28.75;;;5.90;99.90;;;;;;5049737;28;20137;-72
2022/03/23 07:09:31;;;;;;;47.08;27.70;;;5.90;99.90;;;;;;5043071;28;20065;-72
2022/03/23 07:10:28;;;;;;;47.08;29.23;;;6.00;99.90;;;;;;5037987;28;20341;-72
2022/03/23 07:12:55;;;;;;;45.05;28.88;;;6.10;99.90;;;;;;5038559;28;20077;-72
2022/03/23 07:15:21;;;;;;;49.10;29.52;;;6.20;99.90;;;;;;5050375;28;20041;-72
2022/03/23 07:17:46;;;;;;;47.22;30.13;;;6.30;99.90;;;;;;5050664;28;20440;-72
2022/03/23 07:20:12;;;;;;;48.33;29.20;;;6.30;99.90;;;;;;5039147;28;20106;-72
2022/03/23 07:22:38;;;;;;;43.97;27.85;;;6.40;99.90;;;;;;5038905;28;20163;-73
2022/03/23 07:25:05;;;;;;;43.22;28.10;;;6.50;99.90;;;;;;5047954;28;20538;-74
2022/03/23 07:27:31;;;;;;;47.95;28.60;;;6.60;99.90;;;;;;5043876;28;20033;-71
2022/03/23 07:29:57;;;;;;;45.72;29.23;;;6.60;99.90;;;;;;5044825;28;20052;-73
2022/03/23 07:32:23;;;;;;;46.33;28.75;;;6.70;99.90;;;;;;5044603;28;20135;-72
2022/03/23 07:34:48;;;;;;;41.20;27.30;;;6.90;99.90;;;;;;5062563;28;20517;-72
2022/03/23 07:37:14;;;;;;;46.05;28.00;;;7.00;99.90;;;;;;5049206;28;20045;-72
2022/03/23 07:39:40;;;;;;;41.97;27.55;;;7.10;99.90;;;;;;5048012;28;20380;-71
2022/03/23 07:42:06;;;;;;;42.70;27.42;;;7.20;99.90;;;;;;5049193;28;20049;-71
2022/03/23 07:44:34;;;;;;;43.45;28.13;;;7.30;99.90;;;;;;5048993;28;20100;-71
2022/03/23 07:47:01;;;;;;;40.28;25.83;;;7.40;99.90;;;;;;5045763;28;20037;-72
2022/03/23 07:49:27;;;;;;;41.97;27.10;;;7.60;99.90;;;;;;5049957;28;20125;-72
2022/03/23 07:51:52;;;;;;;41.38;26.10;;;7.70;99.90;;;;;;5052048;28;20521;-72
2022/03/23 07:54:18;;;;;;;43.60;28.50;;;7.80;99.90;;;;;;5052303;28;20132;-72
2022/03/23 07:56:44;;;;;;;40.13;26.55;;;7.90;99.90;;;;;;5047013;28;20100;-71
2022/03/23 07:59:11;;;;;;;39.28;25.70;;;8.00;99.90;;;;;;5050470;28;20455;-72
2022/03/23 08:01:37;;;;;;;42.25;27.25;;;8.10;99.90;;;;;;5050469;28;20070;-72
2022/03/23 08:04:04;;;;;;;41.55;26.85;;;8.20;99.90;;;;;;5061554;28;20139;-72
2022/03/23 08:06:30;;;;;;;38.33;26.60;;;8.30;99.90;;;;;;5052777;28;20063;-72
2022/03/23 08:08:56;;;;;;;45.22;26.83;;;8.40;99.90;;;;;;5048517;28;20040;-72
2022/03/23 08:11:22;;;;;;;41.22;27.17;;;8.50;99.90;;;;;;5052152;28;20048;-71
2022/03/23 08:13:47;;;;;;;38.03;25.98;;;8.60;99.90;;;;;;5046778;28;20038;-71
2022/03/23 08:16:13;;;;;;;38.15;25.20;;;8.70;99.90;;;;;;5051008;28;20049;-73
2022/03/23 08:18:39;;;;;;;40.55;26.52;;;8.80;99.90;;;;;;5050388;28;20055;-73
2022/03/23 08:21:05;;;;;;;39.00;25.55;;;8.90;99.90;;;;;;5036468;28;20069;-72
2022/03/23 08:23:31;;;;;;;37.58;24.52;;;9.00;99.90;;;;;;5050535;28;20106;-73
2022/03/23 08:25:57;;;;;;;39.08;25.42;;;9.10;99.90;;;;;;5050159;28;20152;-72
2022/03/23 08:28:22;;;;;;;38.58;25.52;;;9.20;99.90;;;;;;5048631;28;20125;-73
2022/03/23 08:30:48;;;;;;;37.00;25.65;;;9.30;99.90;;;;;;5048532;28;20045;-73
2022/03/23 08:33:14;;;;;;;38.33;25.02;;;9.50;99.90;;;;;;5045426;28;20041;-73
2022/03/23 08:35:39;;;;;;;38.65;24.75;;;9.70;99.90;;;;;;5048067;28;20464;-73
2022/03/23 08:38:08;;;;;;;37.25;24.90;;;9.80;99.90;;;;;;5048608;28;20457;-73
2022/03/23 08:40:35;;;;;;;38.33;25.17;;;9.80;99.90;;;;;;5038840;28;20720;-72
2022/03/23 08:43:01;;;;;;;39.25;25.70;;;10.00;99.90;;;;;;5046515;28;20120;-73
2022/03/23 08:45:27;;;;;;;35.35;24.63;;;10.10;99.90;;;;;;5048890;28;20041;-73
2022/03/23 08:47:54;;;;;;;36.75;24.20;;;10.20;99.90;;;;;;5046906;28;20364;-73
2022/03/23 08:50:20;;;;;;;31.98;24.02;;;10.30;99.90;;;;;;5045467;28;20495;-73
2022/03/23 08:52:45;;;;;;;36.67;25.15;;;10.50;99.90;;;;;;5047816;28;20491;-73
2022/03/23 08:55:14;;;;;;;32.67;23.58;;;10.60;99.90;;;;;;5044369;28;20049;-73
2022/03/23 08:57:41;;;;;;;34.97;24.10;;;10.70;99.90;;;;;;5044391;28;20045;-74
2022/03/23 09:00:08;;;;;;;28.23;21.65;;;10.90;99.90;;;;;;5049836;28;20052;-73
2022/03/23 09:02:34;;;;;;;30.30;21.65;;;11.10;99.90;;;;;;5050242;28;20052;-74
2022/03/23 09:04:59;;;;;;;30.88;19.98;;;11.20;99.90;;;;;;5057041;28;20044;-73
2022/03/23 09:07:25;;;;;;;33.42;22.10;;;11.40;99.20;;;;;;5047700;28;20136;-73
2022/03/23 09:09:50;;;;;;;31.45;21.45;;;11.50;97.50;;;;;;5052986;28;20464;-74
2022/03/23 09:12:16;;;;;;;34.42;21.67;;;11.60;97.00;;;;;;5051332;28;20040;-74
2022/03/23 09:14:42;;;;;;;27.48;20.23;;;11.70;96.60;;;;;;5062423;28;20076;-74
2022/03/23 09:17:08;;;;;;;30.45;21.92;;;11.80;96.40;;;;;;5057029;28;20056;-74
2022/03/23 09:19:34;;;;;;;28.60;19.98;;;12.00;93.30;;;;;;5024354;28;20601;-75
2022/03/23 09:21:59;;;;;;;27.60;20.10;;;12.10;92.00;;;;;;5049075;28;20047;-74
2022/03/23 09:24:30;;;;;;;31.63;21.85;;;12.20;92.70;;;;;;5049433;28;20045;-74
2022/03/23 09:26:56;;;;;;;28.15;20.02;;;12.30;93.10;;;;;;5045892;28;20492;-73
2022/03/23 09:29:22;;;;;;;27.70;20.80;;;12.40;92.40;;;;;;5054698;28;20044;-73
2022/03/23 09:31:48;;;;;;;30.15;21.60;;;12.50;92.30;;;;;;5052315;28;20053;-71
2022/03/23 09:34:14;;;;;;;26.73;20.58;;;12.60;92.10;;;;;;5048740;28;20049;-73
2022/03/23 09:39:24;;;;;;;29.55;20.80;;;12.70;90.90;;;;;;5049660;28;20411;-73
2022/03/23 09:41:50;;;;;;;27.90;20.00;;;12.80;89.60;;;;;;5047718;28;20045;-73
2022/03/23 09:44:16;;;;;;;30.33;21.15;;;12.90;87.90;;;;;;5029930;28;20045;-73
2022/03/23 09:46:45;;;;;;;29.35;19.65;;;13.00;83.60;;;;;;5034641;28;20096;-74
2022/03/23 09:49:11;;;;;;;27.23;20.05;;;13.10;84.20;;;;;;5045213;28;20076;-74
2022/03/23 09:51:38;;;;;;;26.60;19.50;;;13.10;84.90;;;;;;5045929;28;20072;-74
2022/03/23 09:54:05;;;;;;;23.10;17.33;;;13.20;83.90;;;;;;5046128;28;20151;-73
2022/03/23 09:56:31;;;;;;;24.70;17.95;;;13.30;81.00;;;;;;5043429;28;20094;-72
2022/03/23 09:58:57;;;;;;;22.70;17.02;;;13.40;78.70;;;;;;5049878;28;20152;-74
2022/03/23 10:01:29;;;;;;;22.80;16.45;;;13.50;75.90;;;;;;5046232;28;20128;-75
2022/03/23 10:04:12;;;;;;;20.25;15.85;;;13.60;74.00;;;;;;5053103;28;20052;-74
2022/03/23 10:07:06;;;;;;;19.20;14.90;;;13.70;70.90;;;;;;5041949;28;20136;-75
2022/03/23 10:09:59;;;;;;;19.35;14.88;;;13.80;68.90;;;;;;5048077;28;20391;-75
2022/03/23 10:13:02;;;;;;;20.30;15.23;;;13.80;69.30;;;;;;5078612;28;20132;-75
2022/03/23 10:15:59;;;;;;;19.98;15.20;;;13.90;65.80;;;;;;5052147;28;20040;-74
2022/03/23 10:18:40;;;;;;;18.73;14.25;;;14.00;66.40;;;;;;5056456;28;20120;-74
2022/03/23 10:21:07;;;;;;;19.52;14.77;;;14.10;65.10;;;;;;5049422;28;20692;-74
2022/03/23 10:23:33;;;;;;;21.23;14.20;;;14.10;64.60;;;;;;5043710;28;20068;-73
2022/03/23 10:26:11;;;;;;;18.85;14.48;;;14.20;63.80;;;;;;5045374;28;20040;-74
2022/03/23 10:28:37;;;;;;;19.35;14.38;;;14.30;61.30;;;;;;5046999;28;20037;-74
2022/03/23 10:31:15;;;;;;;18.67;14.52;;;14.40;63.30;;;;;;5051577;28;20090;-74
2022/03/23 10:33:41;;;;;;;18.38;14.40;;;14.40;61.70;;;;;;5053118;28;20055;-75
2022/03/23 10:36:06;;;;;;;19.23;14.45;;;14.50;61.90;;;;;;5060187;28;20038;-74
2022/03/23 10:38:38;;;;;;;19.63;13.77;;;14.50;60.90;;;;;;5049073;28;20201;-75
2022/03/23 10:41:23;;;;;;;20.52;15.10;;;14.60;58.00;;;;;;5060016;28;20455;-74
2022/03/23 10:43:49;;;;;;;20.25;14.18;;;14.70;59.00;;;;;;5046807;28;20710;-74
2022/03/23 10:46:14;;;;;;;18.02;13.40;;;14.70;59.40;;;;;;5047890;28;20045;-74
2022/03/23 10:48:51;;;;;;;21.98;14.05;;;14.80;57.90;;;;;;5049233;28;20037;-75
2022/03/23 10:51:26;;;;;;;21.50;14.77;;;14.80;55.60;;;;;;5050590;28;20049;-74
2022/03/23 10:53:52;;;;;;;20.80;13.77;;;14.90;55.70;;;;;;5047589;28;20654;-74
2022/03/23 10:56:37;;;;;;;20.48;13.70;;;14.90;56.00;;;;;;5044698;28;20092;-73
2022/03/23 10:59:23;;;;;;;18.25;14.32;;;15.00;54.60;;;;;;5046593;28;20057;-74
2022/03/23 11:02:03;;;;;;;16.83;13.02;;;15.00;54.30;;;;;;5057716;28;20063;-74
2022/03/23 11:04:58;;;;;;;21.65;14.63;;;15.10;53.40;;;;;;5051184;28;20450;-75
2022/03/23 11:07:29;;;;;;;19.27;13.82;;;15.30;48.70;;;;;;5041207;28;20053;-75
2022/03/23 11:18:12;;;;;;;18.83;13.67;;;15.50;49.70;;;;;;5051656;28;20044;-75
2022/03/23 11:20:46;;;;;;;19.58;14.05;;;15.60;49.70;;;;;;5049937;28;20045;-75
2022/03/23 11:23:21;;;;;;;18.08;12.68;;;15.60;51.60;;;;;;5049778;28;20456;-75
2022/03/23 11:25:50;;;;;;;18.23;11.70;;;15.60;51.30;;;;;;5048866;28;20041;-75
2022/03/23 11:28:17;;;;;;;18.88;11.50;;;15.60;52.60;;;;;;5052672;28;20056;-76
2022/03/23 11:30:44;;;;;;;15.15;11.02;;;15.60;51.90;;;;;;5052109;28;20044;-75
2022/03/23 11:33:12;;;;;;;18.77;11.50;;;15.60;51.70;;;;;;5049265;28;20521;-74
2022/03/23 11:35:45;;;;;;;21.42;12.45;;;15.70;51.80;;;;;;5056368;28;20098;-76
2022/03/23 11:38:12;;;;;;;17.10;11.80;;;15.70;50.40;;;;;;5054728;28;20385;-76
2022/03/23 11:40:42;;;;;;;18.10;11.82;;;15.80;48.60;;;;;;5045309;28;20064;-74
2022/03/23 11:43:10;;;;;;;19.15;11.65;;;15.80;50.40;;;;;;5051883;28;20516;-75
2022/03/23 11:45:41;;;;;;;19.75;11.80;;;15.90;50.80;;;;;;5050697;28;20119;-75
2022/03/23 11:48:32;;;;;;;22.20;12.13;;;15.90;50.60;;;;;;5040751;28;20041;-75
2022/03/23 11:51:13;;;;;;;18.88;11.77;;;15.90;50.10;;;;;;5046748;28;20059;-75
2022/03/23 11:53:50;;;;;;;19.25;12.93;;;16.00;51.20;;;;;;5055440;28;20048;-73
2022/03/23 11:56:25;;;;;;;20.02;12.50;;;16.10;50.10;;;;;;5046376;28;20053;-74
2022/03/23 11:58:52;;;;;;;19.90;12.52;;;16.10;48.50;;;;;;5050626;28;20037;-72
2022/03/23 12:01:18;;;;;;;17.42;12.77;;;16.10;49.40;;;;;;5050798;28;20341;-74
2022/03/23 12:03:50;;;;;;;19.10;10.88;;;16.20;49.50;;;;;;5048792;28;20148;-75
2022/03/23 12:06:19;;;;;;;18.88;11.23;;;16.20;50.00;;;;;;5049145;28;20487;-74
2022/03/23 12:08:52;;;;;;;17.52;11.52;;;16.30;51.30;;;;;;5048387;28;20045;-74
2022/03/23 12:11:38;;;;;;;17.35;11.48;;;16.20;50.60;;;;;;5040195;28;20056;-75
2022/03/23 12:14:26;;;;;;;19.52;11.63;;;16.30;50.10;;;;;;5049495;28;20152;-75
2022/03/23 12:16:52;;;;;;;19.83;10.73;;;16.30;50.90;;;;;;5041813;28;20142;-76
2022/03/23 12:19:28;;;;;;;16.33;11.15;;;16.40;50.00;;;;;;5048128;28;20498;-77
2022/03/23 12:22:07;;;;;;;24.00;12.18;;;16.50;48.00;;;;;;5048413;28;20178;-78
2022/03/23 12:25:03;;;;;;;17.88;10.73;;;16.50;47.70;;;;;;5051507;28;20344;-73
2022/03/23 12:27:53;;;;;;;21.27;11.10;;;16.60;48.10;;;;;;5039383;28;20068;-73
2022/03/23 12:30:37;;;;;;;17.25;11.13;;;16.60;47.70;;;;;;5049775;28;20049;-74
2022/03/23 12:33:10;;;;;;;18.38;10.23;;;16.70;47.70;;;;;;5049613;28;20044;-74
2022/03/23 12:35:36;;;;;;;18.67;10.45;;;16.70;48.40;;;;;;5047453;28;20136;-73
2022/03/23 12:38:03;;;;;;;21.60;10.45;;;16.70;48.40;;;;;;5059422;28;20043;-74
2022/03/23 12:40:43;;;;;;;19.83;10.27;;;16.80;48.80;;;;;;5052187;28;20137;-72
2022/03/23 12:43:29;;;;;;;23.90;11.40;;;16.80;48.30;;;;;;5047294;28;20053;-74
2022/03/23 12:45:55;;;;;;;17.27;10.43;;;16.90;49.70;;;;;;5048902;28;20042;-74
2022/03/23 12:59:36;;;;;;;16.00;6.32;;;17.10;46.60;;;;;;5050085;28;20053;-73
2022/03/23 13:02:21;;;;;;;18.10;6.38;;;17.10;46.20;;;;;;5046322;28;20057;-73
2022/03/23 13:04:46;;;;;;;16.73;6.77;;;17.10;44.90;;;;;;5048092;28;20049;-74
2022/03/23 13:07:33;;;;;;;14.82;6.55;;;17.20;47.10;;;;;;5048781;28;20321;-74
2022/03/23 13:10:08;;;;;;;17.23;6.57;;;17.20;46.30;;;;;;5047897;28;20072;-74
2022/03/23 13:12:34;;;;;;;15.98;7.30;;;17.20;46.70;;;;;;5029163;28;20084;-74